createdAt,value
2022-09-28T00:00:42.028Z,99817.53
2022-09-28T00:03:09.293Z,99816.75
2022-09-28T00:05:35.940Z,99821.25
2022-09-28T00:08:02.424Z,99818.09
2022-09-28T00:10:28.860Z,99819.47
2022-09-28T00:12:55.567Z,99816.63
2022-09-28T00:15:22.577Z,99811.94
2022-09-28T00:17:49.091Z,99812.50
2022-09-28T00:20:17.268Z,99819.66
2022-09-28T00:22:43.761Z,99818.38
2022-09-28T00:25:10.494Z,99811.81
2022-09-28T00:27:36.940Z,99819.25
2022-09-28T00:30:04.360Z,99821.09
2022-09-28T00:32:30.900Z,99822.78
2022-09-28T00:34:57.436Z,99818.06
2022-09-28T00:37:24.312Z,99810.41
2022-09-28T00:39:50.795Z,99816.00
2022-09-28T00:42:21.198Z,99815.19
2022-09-28T00:44:56.075Z,99811.78
2022-09-28T00:47:41.442Z,99803.34
2022-09-28T00:50:25.783Z,99804.72
2022-09-28T00:53:06.621Z,99806.84
2022-09-28T00:55:54.711Z,99807.91
2022-09-28T00:58:27.600Z,99798.72
2022-09-28T01:00:58.224Z,99800.38
2022-09-28T01:03:26.286Z,99806.44
2022-09-28T01:05:54.908Z,99790.06
2022-09-28T01:08:23.926Z,99797.72
2022-09-28T01:10:51.301Z,99795.34
2022-09-28T01:13:18.792Z,99794.56
2022-09-28T01:16:22.013Z,99791.16
2022-09-28T01:19:21.164Z,99803.59
2022-09-28T01:21:53.257Z,99792.22
2022-09-28T01:24:46.256Z,99793.03
2022-09-28T01:27:23.016Z,99788.22
2022-09-28T01:29:57.385Z,99791.94
2022-09-28T01:32:42.484Z,99790.88
2022-09-28T01:35:17.329Z,99787.41
2022-09-28T01:37:59.698Z,99789.00
2022-09-28T01:40:28.719Z,99788.22
2022-09-28T01:43:02.179Z,99796.16
2022-09-28T01:45:33.953Z,99795.34
2022-09-28T01:48:05.823Z,99790.06
2022-09-28T01:50:38.401Z,99788.22
2022-09-28T01:53:12.948Z,99792.72
2022-09-28T01:55:47.888Z,99789.28
2022-09-28T01:58:32.561Z,99791.72
2022-09-28T02:01:09.983Z,99793.88
2022-09-28T02:03:44.604Z,99780.94
2022-09-28T02:06:17.977Z,99782.00
2022-09-28T02:08:51.750Z,99776.72
2022-09-28T02:11:20.274Z,99784.66
2022-09-28T02:14:04.306Z,99783.88
2022-09-28T02:16:42.972Z,99783.09
2022-09-28T02:19:21.348Z,99775.72
2022-09-28T02:22:01.668Z,99778.38
2022-09-28T02:24:40.216Z,99790.03
2022-09-28T02:27:34.237Z,99789.25
2022-09-28T02:30:01.450Z,99787.66
2022-09-28T02:32:31.794Z,99786.13
2022-09-28T02:34:59.308Z,99782.66
2022-09-28T02:37:27.778Z,99783.47
2022-09-28T02:39:54.298Z,99778.47
2022-09-28T02:42:35.071Z,99784.81
2022-09-28T02:45:29.435Z,99790.69
2022-09-28T02:48:14.165Z,99795.47
2022-09-28T02:51:31.474Z,99785.78
2022-09-28T02:54:25.872Z,99798.19
2022-09-28T02:57:03.508Z,99798.19
2022-09-28T02:59:40.419Z,99801.91
2022-09-28T03:02:14.243Z,99800.03
2022-09-28T03:05:11.945Z,99800.81
2022-09-28T03:08:03.401Z,99801.41
2022-09-28T03:10:41.740Z,99802.47
2022-09-28T03:13:09.075Z,99800.91
2022-09-28T03:15:36.476Z,99804.13
2022-09-28T03:18:04.064Z,99805.97
2022-09-28T03:20:31.854Z,99807.06
2022-09-28T03:23:23.416Z,99809.50
2022-09-28T03:25:45.316Z,99801.84
2022-09-28T03:28:11.821Z,99807.44
2022-09-28T03:30:39.351Z,99805.06
2022-09-28T03:33:07.077Z,99807.22
2022-09-28T03:35:33.931Z,99812.78
2022-09-28T03:38:00.615Z,99809.63
2022-09-28T03:40:27.199Z,99801.97
2022-09-28T03:42:54.049Z,99806.75
2022-09-28T03:45:20.590Z,99806.25
2022-09-28T03:47:48.658Z,99805.47
2022-09-28T03:50:15.674Z,99805.47
2022-09-28T03:52:42.835Z,99803.94
2022-09-28T03:55:10.082Z,99802.34
2022-09-28T03:57:37.064Z,99796.56
2022-09-28T04:00:05.683Z,99796.28
2022-09-28T04:02:32.259Z,99787.84
2022-09-28T04:04:58.822Z,99790.75
2022-09-28T04:07:30.212Z,99787.63
2022-09-28T04:09:57.804Z,99794.78
2022-09-28T04:12:24.299Z,99792.41
2022-09-28T04:14:50.971Z,99788.47
2022-09-28T04:17:17.623Z,99803.56
2022-09-28T04:19:44.059Z,99805.69
2022-09-28T04:22:10.709Z,99795.41
2022-09-28T04:24:37.416Z,99813.38
2022-09-28T04:27:22.086Z,99816.31
2022-09-28T04:29:48.539Z,99812.38
2022-09-28T04:32:15.039Z,99814.25
2022-09-28T04:34:44.066Z,99802.09
2022-09-28T04:37:11.000Z,99801.59
2022-09-28T04:39:37.655Z,99800.03
2022-09-28T04:42:04.220Z,99807.97
2022-09-28T04:44:30.772Z,99812.47
2022-09-28T04:46:58.912Z,99814.88
2022-09-28T04:49:28.163Z,99805.66
2022-09-28T04:51:54.686Z,99808.59
2022-09-28T04:54:21.051Z,99814.13
2022-09-28T04:56:47.748Z,99814.41
2022-09-28T04:59:14.528Z,99813.13
2022-09-28T05:01:41.175Z,99816.53
2022-09-28T05:04:07.924Z,99811.56
2022-09-28T05:06:34.583Z,99814.22
2022-09-28T05:09:01.184Z,99811.84
2022-09-28T05:11:27.756Z,99821.63
2022-09-28T05:13:54.352Z,99816.63
2022-09-28T05:16:21.018Z,99816.91
2022-09-28T05:18:47.548Z,99816.97
2022-09-28T05:21:15.596Z,99820.97
2022-09-28T05:23:46.763Z,99819.66
2022-09-28T05:26:13.983Z,99817.56
2022-09-28T05:28:40.490Z,99816.81
2022-09-28T05:31:07.236Z,99822.34
2022-09-28T05:33:34.251Z,99824.47
2022-09-28T05:36:01.964Z,99824.75
2022-09-28T05:38:29.882Z,99818.69
2022-09-28T05:40:56.590Z,99827.66
2022-09-28T05:43:23.100Z,99829.25
2022-09-28T05:45:55.098Z,99831.13
2022-09-28T05:48:22.622Z,99827.66
2022-09-28T05:50:52.638Z,99827.41
2022-09-28T05:53:20.109Z,99834.81
2022-09-28T05:55:46.972Z,99832.94
2022-09-28T05:58:13.866Z,99834.81
2022-09-28T06:00:40.347Z,99832.44
2022-09-28T06:03:11.086Z,99837.72
2022-09-28T06:05:39.321Z,99836.66
2022-09-28T06:08:08.498Z,99828.47
2022-09-28T06:10:35.060Z,99837.69
2022-09-28T06:13:02.551Z,99828.69
2022-09-28T06:15:31.832Z,99834.78
2022-09-28T06:18:07.097Z,99836.06
2022-09-28T06:20:36.530Z,99839.47
2022-09-28T06:23:03.188Z,99839.72
2022-09-28T06:25:29.772Z,99838.34
2022-09-28T06:28:02.088Z,99841.22
2022-09-28T06:30:30.901Z,99835.69
2022-09-28T06:32:59.265Z,99847.22
2022-09-28T06:35:28.437Z,99847.72
2022-09-28T06:37:54.935Z,99851.38
2022-09-28T06:40:22.734Z,99848.19
2022-09-28T06:43:00.687Z,99844.69
2022-09-28T06:45:29.283Z,99851.00
2022-09-28T06:47:58.363Z,99859.16
2022-09-28T06:50:26.566Z,99856.44
2022-09-28T06:52:54.503Z,99853.25
2022-09-28T06:55:22.873Z,99859.53
2022-09-28T06:57:58.284Z,99858.69
2022-09-28T07:00:25.636Z,99856.25
2022-09-28T07:02:52.128Z,99863.34
2022-09-28T07:05:19.840Z,99862.19
2022-09-28T07:07:46.301Z,99856.84
2022-09-28T07:10:12.893Z,99868.41
2022-09-28T07:12:40.576Z,99869.13
2022-09-28T07:15:08.318Z,99871.41
2022-09-28T07:17:45.475Z,99877.72
2022-09-28T07:20:19.599Z,99877.34
2022-09-28T07:22:48.289Z,99886.78
2022-09-28T07:25:14.790Z,99887.50
2022-09-28T07:27:41.276Z,99887.72
2022-09-28T07:30:08.275Z,99886.88
2022-09-28T07:32:37.392Z,99894.16
2022-09-28T07:35:09.302Z,99895.94
2022-09-28T07:37:36.644Z,99906.44
2022-09-28T07:40:23.171Z,99907.63
2022-09-28T07:42:49.740Z,99912.56
2022-09-28T07:45:16.610Z,99913.78
2022-09-28T07:47:43.492Z,99915.25
2022-09-28T07:50:10.117Z,99907.75
2022-09-28T07:52:36.565Z,99916.88
2022-09-28T07:55:07.069Z,99908.84
2022-09-28T07:57:35.188Z,99907.09
2022-09-28T08:00:02.429Z,99912.81
2022-09-28T08:02:29.015Z,99914.75
2022-09-28T08:04:56.599Z,99907.50
2022-09-28T08:07:25.577Z,99917.44
2022-09-28T08:09:52.353Z,99918.66
2022-09-28T08:12:19.741Z,99920.41
2022-09-28T08:14:47.225Z,99918.75
2022-09-28T08:17:13.851Z,99926.78
2022-09-28T08:19:58.547Z,99926.88
2022-09-28T08:22:25.219Z,99927.09
2022-09-28T08:24:51.902Z,99924.03
2022-09-28T08:27:18.627Z,99932.69
2022-09-28T08:29:45.161Z,99932.06
2022-09-28T08:32:11.711Z,99935.41
2022-09-28T08:34:42.037Z,99942.38
2022-09-28T08:37:09.520Z,99938.06
2022-09-28T08:39:36.414Z,99944.81
2022-09-28T08:42:41.778Z,99940.09
2022-09-28T08:45:14.418Z,99939.56
2022-09-28T08:48:11.814Z,99945.72
2022-09-28T08:50:49.079Z,99945.78
2022-09-28T08:53:42.305Z,99945.69
2022-09-28T08:56:18.816Z,99946.34
2022-09-28T08:58:52.843Z,99950.34
2022-09-28T09:01:23.656Z,99948.81
2022-09-28T09:03:50.797Z,99952.91
2022-09-28T09:06:54.627Z,99956.59
2022-09-28T09:09:49.959Z,99957.13
2022-09-28T09:15:33.906Z,99956.16
2022-09-28T09:18:23.135Z,99960.13
2022-09-28T09:21:15.776Z,99967.19
2022-09-28T09:23:55.919Z,99965.38
2022-09-28T09:26:36.422Z,99975.56
2022-09-28T09:29:34.425Z,99968.84
2022-09-28T09:32:14.697Z,99967.50
2022-09-28T09:35:20.199Z,99967.53
2022-09-28T09:38:22.024Z,99969.41
2022-09-28T09:41:02.445Z,99969.13
2022-09-28T09:43:59.022Z,99969.28
2022-09-28T09:46:42.962Z,99968.97
2022-09-28T09:49:24.353Z,99975.41
2022-09-28T09:52:03.321Z,99975.88
2022-09-28T09:54:37.333Z,99979.94
2022-09-28T09:57:18.002Z,99964.09
2022-09-28T09:59:45.639Z,99973.84
2022-09-28T10:02:32.089Z,99970.69
2022-09-28T10:05:18.574Z,99964.75
2022-09-28T10:07:58.505Z,99966.91
2022-09-28T10:10:35.905Z,99979.91
2022-09-28T10:13:03.446Z,99974.38
2022-09-28T10:15:33.235Z,99978.28
2022-09-28T10:18:12.568Z,99973.28
2022-09-28T10:20:40.927Z,99973.88
2022-09-28T10:23:17.692Z,99974.78
2022-09-28T10:25:46.339Z,99973.03
2022-09-28T10:28:19.285Z,99979.78
2022-09-28T10:30:45.937Z,99976.28
2022-09-28T10:33:32.191Z,99972.22
2022-09-28T10:36:04.164Z,99977.69
2022-09-28T10:38:31.632Z,99978.28
2022-09-28T10:41:10.020Z,99976.69
2022-09-28T10:43:50.706Z,99993.56
2022-09-28T10:46:23.753Z,99976.59
2022-09-28T10:49:06.864Z,99976.13
2022-09-28T10:51:45.064Z,99982.56
2022-09-28T10:54:19.296Z,99982.44
2022-09-28T10:56:46.703Z,99983.88
2022-09-28T10:59:51.788Z,99973.97
2022-09-28T11:02:33.605Z,99972.69
2022-09-28T11:05:06.560Z,99976.72
2022-09-28T11:07:44.164Z,99976.53
2022-09-28T11:10:21.555Z,99983.97
2022-09-28T11:12:50.073Z,99974.84
2022-09-28T11:15:21.209Z,99979.25
2022-09-28T11:17:48.332Z,99979.53
2022-09-28T11:20:29.386Z,99978.53
2022-09-28T11:23:16.419Z,99970.13
2022-09-28T11:25:45.653Z,99971.75
2022-09-28T11:28:24.057Z,99973.69
2022-09-28T11:30:54.179Z,99972.06
2022-09-28T11:33:35.739Z,99971.97
2022-09-28T11:36:14.221Z,99966.84
2022-09-28T11:39:08.898Z,99961.41
2022-09-28T11:42:01.410Z,99961.66
2022-09-28T11:44:48.108Z,99958.56
2022-09-28T11:47:34.588Z,99958.69
2022-09-28T11:50:22.942Z,99964.25
2022-09-28T11:53:02.265Z,99968.41
2022-09-28T11:55:42.147Z,99971.41
2022-09-28T11:58:28.058Z,99970.50
2022-09-28T12:01:02.032Z,99962.47
2022-09-28T12:03:36.610Z,99971.84
2022-09-28T12:06:08.740Z,99967.63
2022-09-28T12:08:40.099Z,99965.81
2022-09-28T12:11:22.033Z,99974.75
2022-09-28T12:13:52.719Z,99975.63
2022-09-28T12:17:00.842Z,99971.69
2022-09-28T12:19:27.917Z,99974.72
2022-09-28T12:22:04.174Z,99976.97
2022-09-28T12:24:42.624Z,99982.41
2022-09-28T12:27:21.516Z,99981.44
2022-09-28T12:30:13.422Z,99985.78
2022-09-28T12:32:49.161Z,99993.81
2022-09-28T12:35:27.680Z,99989.22
2022-09-28T12:38:28.492Z,99987.06
2022-09-28T12:41:23.904Z,99990.78
2022-09-28T12:43:57.887Z,100007.72
2022-09-28T12:46:39.353Z,100018.28
2022-09-28T12:50:36.210Z,100014.28
2022-09-28T12:52:31.872Z,100016.25
2022-09-28T12:55:07.283Z,100010.94
2022-09-28T12:57:33.768Z,100001.38
2022-09-28T13:00:11.658Z,100003.25
2022-09-28T13:03:02.451Z,100009.50
2022-09-28T13:05:58.895Z,100008.56
2022-09-28T13:08:55.705Z,99997.59
2022-09-28T13:11:39.160Z,99991.19
2022-09-28T13:14:30.634Z,100003.41
2022-09-28T13:17:06.564Z,99998.69
2022-09-28T13:19:41.990Z,100002.94
2022-09-28T13:22:32.101Z,100002.59
2022-09-28T13:25:05.371Z,100010.28
2022-09-28T13:27:37.189Z,100006.53
2022-09-28T13:30:08.416Z,100012.00
2022-09-28T13:32:37.467Z,100008.44
2022-09-28T13:35:05.499Z,100012.34
2022-09-28T13:37:34.388Z,100014.84
2022-09-28T13:40:06.085Z,100009.69
2022-09-28T13:42:44.993Z,100014.25
2022-09-28T13:45:20.484Z,100016.13
2022-09-28T13:48:02.167Z,100012.84
2022-09-28T13:50:34.938Z,100010.66
2022-09-28T13:53:29.408Z,100006.59
2022-09-28T13:56:44.587Z,100010.34
2022-09-28T13:59:30.502Z,100002.47
2022-09-28T14:02:07.066Z,100005.25
2022-09-28T14:05:06.111Z,99998.16
2022-09-28T14:07:35.258Z,100004.38
2022-09-28T14:10:18.335Z,100004.03
2022-09-28T14:12:50.304Z,100011.22
2022-09-28T14:15:29.090Z,100003.19
2022-09-28T14:18:10.684Z,100016.47
2022-09-28T14:20:37.399Z,100013.94
2022-09-28T14:23:25.245Z,100012.84
2022-09-28T14:26:11.454Z,100012.06
2022-09-28T14:28:53.748Z,100014.13
2022-09-28T14:31:29.100Z,100020.75
2022-09-28T14:34:01.560Z,100022.50
2022-09-28T14:36:55.461Z,100025.34
2022-09-28T14:39:47.818Z,100031.66
2022-09-28T14:42:18.635Z,100034.50
2022-09-28T14:45:06.386Z,100031.38
2022-09-28T14:47:40.432Z,100032.19
2022-09-28T14:50:28.531Z,100037.97
2022-09-28T14:53:04.910Z,100036.59
2022-09-28T14:55:38.927Z,100036.75
2022-09-28T14:58:13.792Z,100032.84
2022-09-28T15:00:44.331Z,100034.44
2022-09-28T15:03:12.925Z,100038.84
2022-09-28T15:05:44.680Z,100044.66
2022-09-28T15:08:12.211Z,100034.47
2022-09-28T15:10:46.077Z,100050.63
2022-09-28T15:13:25.840Z,100048.75
2022-09-28T15:16:03.828Z,100055.31
2022-09-28T15:18:30.246Z,100049.53
2022-09-28T15:20:57.867Z,100053.59
2022-09-28T15:23:36.340Z,100054.72
2022-09-28T15:26:07.092Z,100055.03
2022-09-28T15:28:35.738Z,100057.50
2022-09-28T15:31:06.003Z,100060.00
2022-09-28T15:33:53.976Z,100055.47
2022-09-28T15:36:22.172Z,100060.00
2022-09-28T15:38:57.312Z,100058.91
2022-09-28T15:41:25.338Z,100059.22
2022-09-28T15:44:09.333Z,100060.31
2022-09-28T15:46:41.470Z,100061.09
2022-09-28T15:49:24.588Z,100059.56
2022-09-28T15:51:53.739Z,100061.75
2022-09-28T15:54:41.612Z,100064.53
2022-09-28T15:57:31.011Z,100060.63
2022-09-28T15:59:59.158Z,100062.81
2022-09-28T16:02:26.339Z,100057.78
2022-09-28T16:05:00.965Z,100068.44
2022-09-28T16:07:33.554Z,100066.56
2022-09-28T16:10:00.250Z,100067.38
2022-09-28T16:12:32.600Z,100070.63
2022-09-28T16:15:05.243Z,100065.78
2022-09-28T16:17:35.242Z,100063.28
2022-09-28T16:20:22.300Z,100064.84
2022-09-28T16:22:49.791Z,100066.72
2022-09-28T16:25:25.624Z,100063.28
2022-09-28T16:27:55.027Z,100065.31
2022-09-28T16:30:28.841Z,100066.91
2022-09-28T16:33:02.006Z,100059.84
2022-09-28T16:35:32.516Z,100063.47
2022-09-28T16:38:12.099Z,100067.38
2022-09-28T16:40:49.816Z,100068.94
2022-09-28T16:43:20.925Z,100065.22
2022-09-28T16:45:47.557Z,100073.66
2022-09-28T16:48:19.334Z,100073.66
2022-09-28T16:50:46.485Z,100075.56
2022-09-28T16:53:34.420Z,100079.31
2022-09-28T16:56:02.111Z,100084.13
2022-09-28T16:58:30.904Z,100085.25
2022-09-28T17:00:58.456Z,100082.88
2022-09-28T17:03:25.990Z,100095.72
2022-09-28T17:05:53.712Z,100098.56
2022-09-28T17:08:22.513Z,100096.50
2022-09-28T17:11:25.438Z,100092.59
2022-09-28T17:13:43.699Z,100098.22
2022-09-28T17:16:14.111Z,100102.00
2022-09-28T17:18:40.980Z,100111.06
2022-09-28T17:21:13.169Z,100110.13
2022-09-28T17:23:39.680Z,100113.41
2022-09-28T17:26:06.436Z,100111.34
2022-09-28T17:28:35.782Z,100110.88
2022-09-28T17:31:03.809Z,100114.47
2022-09-28T17:33:30.420Z,100116.19
2022-09-28T17:36:00.246Z,100120.25
2022-09-28T17:38:28.057Z,100128.84
2022-09-28T17:40:54.649Z,100127.59
2022-09-28T17:43:22.167Z,100126.34
2022-09-28T17:45:49.804Z,100127.75
2022-09-28T17:48:18.635Z,100123.78
2022-09-28T17:50:47.431Z,100118.00
2022-09-28T17:53:14.617Z,100112.81
2022-09-28T17:55:43.169Z,100123.28
2022-09-28T17:58:19.805Z,100125.00
2022-09-28T18:00:47.982Z,100124.53
2022-09-28T18:03:20.552Z,100127.03
2022-09-28T18:05:49.749Z,100135.44
2022-09-28T18:08:19.743Z,100126.00
2022-09-28T18:10:49.248Z,100131.47
2022-09-28T18:13:15.756Z,100124.91
2022-09-28T18:15:43.364Z,100131.91
2022-09-28T18:18:10.345Z,100132.34
2022-09-28T18:20:37.626Z,100130.91
2022-09-28T18:23:04.242Z,100135.25
2022-09-28T18:25:31.014Z,100128.16
2022-09-28T18:27:59.855Z,100129.25
2022-09-28T18:30:27.904Z,100136.75
2022-09-28T18:32:54.406Z,100133.63
2022-09-28T18:35:23.127Z,100125.47
2022-09-28T18:37:50.507Z,100139.03
2022-09-28T18:40:17.301Z,100135.13
2022-09-28T18:42:43.893Z,100133.56
2022-09-28T18:45:11.245Z,100143.41
2022-09-28T18:47:39.128Z,100138.41
2022-09-28T18:50:06.467Z,100139.78
2022-09-28T18:52:36.585Z,100139.59
2022-09-28T18:55:04.010Z,100140.19
2022-09-28T18:57:33.115Z,100136.56
2022-09-28T19:00:00.837Z,100141.41
2022-09-28T19:02:27.720Z,100144.66
2022-09-28T19:04:54.315Z,100140.72
2022-09-28T19:07:21.252Z,100134.91
2022-09-28T19:09:47.730Z,100140.53
2022-09-28T19:12:14.841Z,100138.94
2022-09-28T19:14:41.400Z,100139.25
2022-09-28T19:17:07.943Z,100144.88
2022-09-28T19:19:34.431Z,100141.44
2022-09-28T19:22:00.933Z,100142.50
2022-09-28T19:24:27.460Z,100134.03
2022-09-28T19:26:54.078Z,100141.53
2022-09-28T19:29:20.735Z,100142.63
2022-09-28T19:31:49.253Z,100135.25
2022-09-28T19:34:16.023Z,100139.78
2022-09-28T19:36:42.923Z,100136.63
2022-09-28T19:39:14.373Z,100147.06
2022-09-28T19:41:43.595Z,100155.34
2022-09-28T19:44:19.847Z,100157.50
2022-09-28T19:46:46.701Z,100152.50
2022-09-28T19:49:18.399Z,100157.03
2022-09-28T19:52:11.005Z,100159.97
2022-09-28T19:54:36.667Z,100164.31
2022-09-28T19:57:08.910Z,100163.03
2022-09-28T19:59:38.665Z,100167.06
2022-09-28T20:02:07.186Z,100166.56
2022-09-28T20:04:34.095Z,100167.94
2022-09-28T20:07:01.817Z,100165.91
2022-09-28T20:09:28.419Z,100166.97
2022-09-28T20:11:55.109Z,100177.91
2022-09-28T20:14:23.535Z,100175.84
2022-09-28T20:16:52.747Z,100181.44
2022-09-28T20:19:21.539Z,100187.34
2022-09-28T20:21:48.426Z,100177.63
2022-09-28T20:24:16.768Z,100180.06
2022-09-28T20:26:44.411Z,100177.69
2022-09-28T20:29:10.977Z,100185.16
2022-09-28T20:31:38.033Z,100187.63
2022-09-28T20:34:05.943Z,100184.47
2022-09-28T20:36:32.909Z,100190.09
2022-09-28T20:39:03.422Z,100187.53
2022-09-28T20:41:35.644Z,100195.31
2022-09-28T20:44:05.565Z,100193.22
2022-09-28T20:46:32.995Z,100194.88
2022-09-28T20:48:59.814Z,100193.59
2022-09-28T20:51:26.331Z,100188.09
2022-09-28T20:53:55.175Z,100183.06
2022-09-28T20:56:28.325Z,100183.06
2022-09-28T20:58:55.555Z,100191.03
2022-09-28T21:01:24.188Z,100195.06
2022-09-28T21:03:52.935Z,100195.34
2022-09-28T21:06:20.732Z,100202.81
2022-09-28T21:08:48.909Z,100195.44
2022-09-28T21:11:20.728Z,100194.47
2022-09-28T21:13:47.506Z,100196.13
2022-09-28T21:16:17.568Z,100208.38
2022-09-28T21:18:44.799Z,100204.47
2022-09-28T21:21:16.709Z,100204.25
2022-09-28T21:23:46.482Z,100205.91
2022-09-28T21:26:27.570Z,100204.34
2022-09-28T21:28:59.699Z,100212.28
2022-09-28T21:31:31.414Z,100220.53
2022-09-28T21:33:58.505Z,100205.19
2022-09-28T21:36:25.916Z,100211.88
2022-09-28T21:38:54.153Z,100215.09
2022-09-28T21:41:20.632Z,100208.53
2022-09-28T21:43:47.320Z,100217.81
2022-09-28T21:46:13.859Z,100215.16
2022-09-28T21:48:41.488Z,100217.31
2022-09-28T21:51:12.483Z,100219.47
2022-09-28T21:53:39.450Z,100218.97
2022-09-28T21:56:09.006Z,100226.41
2022-09-28T21:58:36.534Z,100212.38
2022-09-28T22:01:09.098Z,100219.84
2022-09-28T22:03:36.488Z,100223.59
2022-09-28T22:06:04.310Z,100222.00
2022-09-28T22:08:31.258Z,100221.50
2022-09-28T22:11:04.498Z,100213.03
2022-09-28T22:13:39.236Z,100216.78
2022-09-28T22:16:05.823Z,100220.50
2022-09-28T22:18:34.156Z,100225.28
2022-09-28T22:21:06.615Z,100230.09
2022-09-28T22:23:34.106Z,100226.16
2022-09-28T22:26:03.749Z,100227.03
2022-09-28T22:28:30.330Z,100230.56
2022-09-28T22:30:57.576Z,100234.34
2022-09-28T22:33:25.001Z,100238.91
2022-09-28T22:35:51.565Z,100242.94
2022-09-28T22:38:19.612Z,100241.38
2022-09-28T22:40:49.519Z,100240.88
2022-09-28T22:43:16.701Z,100240.06
2022-09-28T22:45:43.180Z,100240.06
2022-09-28T22:48:10.648Z,100245.34
2022-09-28T22:50:38.910Z,100249.09
2022-09-28T22:53:06.381Z,100244.06
2022-09-28T22:55:35.681Z,100247.03
2022-09-28T22:58:02.329Z,100244.66
2022-09-28T23:00:29.169Z,100241.50
2022-09-28T23:02:55.677Z,100244.13
2022-09-28T23:05:22.207Z,100242.84
2022-09-28T23:07:48.611Z,100248.44
2022-09-28T23:10:15.426Z,100241.34
2022-09-28T23:12:41.945Z,100244.03
2022-09-28T23:15:09.255Z,100241.66
2022-09-28T23:17:35.835Z,100242.50
2022-09-28T23:20:02.594Z,100242.84
2022-09-28T23:22:29.108Z,100244.22
2022-09-28T23:24:55.623Z,100255.06
2022-09-28T23:27:22.675Z,100251.13
2022-09-28T23:29:49.158Z,100254.06
2022-09-28T23:32:16.772Z,100251.41
2022-09-28T23:34:43.460Z,100251.41
2022-09-28T23:37:10.779Z,100259.63
2022-09-28T23:39:37.284Z,100264.41
2022-09-28T23:42:04.425Z,100269.19
2022-09-28T23:44:34.067Z,100260.25
2022-09-28T23:47:00.783Z,100262.94
2022-09-28T23:49:27.390Z,100265.88
2022-09-28T23:51:56.122Z,100258.19
2022-09-28T23:54:22.605Z,100251.63
2022-09-28T23:56:49.432Z,100251.09
2022-09-28T23:59:16.031Z,100250.31
